Tuesday, June 19, 2018, 4:45 AM GMT
Back to Local

CWVQ, Ste Anne De Bell 1

Location: , , Canada Lat: 45.433
Local Time: 4:45 AM GMT ( 4:45 GMT) Lon: -73.933
Time Zone: GMT Elev: 127 ft

Show me the last for .
Show Coded

Time T Td Feel RH Dir Speed Gust Alt SLP Vis Weather Sky Remarks
2018-06-19 04:00 67 61 - 79 300° 8 - - 29.73 0 None
2018-06-19 03:00 70 67 - 91 310° 6 - - 29.70 0 None
2018-06-19 02:00 71 69 76 95 280° 5 - - 29.67 0 None
2018-06-19 01:00 71 68 76 91 330° 5 - - 29.64 0 None
2018-06-19 00:00 73 70 77 89 340° 9 - - 29.61 0 Peak wind: 25 mph (22 kts) from 310° at 28 min
1-hr Precip Total: 0.01"
2018-06-18 23:00 78 74 83 87 240° 10 - - 29.58 0 None
2018-06-18 22:00 80 74 85 82 240° 9 - - 29.58 0 None
2018-06-18 21:00 81 71 86 71 270° 12 17 - 29.61 0 Peak wind: 20 mph (18 kts) from 270° at 01 min
2018-06-18 20:00 82 72 88 71 270° 14 25 - 29.60 0 Peak wind: 26 mph (23 kts) from 270° at 36 min
2018-06-18 19:00 82 74 89 75 250° 14 22 - 29.63 0 Peak wind: 21 mph (19 kts) from 240° at 56 min
2018-06-18 18:00 79 74 84 84 230° 12 18 - 29.66 0 None
2018-06-18 17:00 76 72 80 89 230° 10 - - 29.69 0 None
2018-06-18 16:00 73 71 78 91 240° 8 - - 29.72 0 Peak wind: 20 mph (18 kts) from 250° at 06 min
1-hr Precip Total: 0.15"
2018-06-18 15:00 77 70 81 79 240° 8 - - 29.72 0 Peak wind: 19 mph (17 kts) from 240° at 09 min
2018-06-18 14:00 78 69 82 74 240° 14 21 - 29.72 0 Peak wind: 20 mph (18 kts) from 250° at 52 min
2018-06-18 13:00 76 68 79 76 220° 12 - - 29.74 0 None
2018-06-18 12:00 74 68 78 79 230° 6 - - 29.76 0 None
2018-06-18 11:00 72 67 76 84 220° 5 - - 29.78 0 None
2018-06-18 10:00 70 67 76 90 160° 3 - - 29.77 0 1-hr Precip Total: 0.04"
2018-06-18 09:00 69 66 - 92 - Calm - - 29.79 0 None
2018-06-18 08:00 70 67 - 92 170° 2 - - 29.80 0 None
2018-06-18 07:00 68 67 - 94 - Calm - - 29.83 0 1-hr Precip Total: 0.17"
2018-06-18 06:00 71 65 76 81 300° 6 - - 29.87 0 None
2018-06-18 05:00 74 64 78 69 250° 6 - - 29.87 0 None

Support USWX by starting your Amazon purchase here.